Time;durP1;ratioP1;P1;durP2;ratioP2;P2;SDS_P1;SDS_P2;PMS_P1;PMS_P2;Temp;Humidity;BMP_temperature;BMP_pressure;BME280_temperature;BME280_humidity;BME280_pressure;Samples;Min_cycle;Max_cycle;Signal;HPM_P1;HPM_P2
2023/02/27 00:01:22;;;;;;;5.50;1.70;;;3.50;99.90;;;;;;4182477;28;20075;-66
2023/02/27 00:03:23;;;;;;;4.63;1.90;;;3.50;99.90;;;;;;4179505;28;20495;-66
2023/02/27 00:05:24;;;;;;;3.47;1.73;;;3.50;99.90;;;;;;4177208;28;20911;-67
2023/02/27 00:07:25;;;;;;;3.42;1.67;;;3.50;99.90;;;;;;4175268;28;20048;-66
2023/02/27 00:09:25;;;;;;;4.07;1.92;;;3.50;99.90;;;;;;4179146;28;20037;-66
2023/02/27 00:11:26;;;;;;;3.80;1.70;;;3.50;99.90;;;;;;4183200;28;20082;-66
2023/02/27 00:13:26;;;;;;;6.25;1.88;;;3.40;99.90;;;;;;4182722;28;20063;-66
2023/02/27 00:15:29;;;;;;;6.60;2.10;;;3.40;99.90;;;;;;4178107;28;20391;-67
2023/02/27 00:17:30;;;;;;;4.07;1.85;;;3.40;99.90;;;;;;4172857;28;20037;-67
2023/02/27 00:19:30;;;;;;;5.88;1.52;;;3.30;99.90;;;;;;4174031;28;20051;-66
2023/02/27 00:21:31;;;;;;;5.13;2.22;;;3.30;99.90;;;;;;4188042;28;20094;-67
2023/02/27 00:23:32;;;;;;;7.00;1.85;;;3.30;99.90;;;;;;4182155;28;20039;-67
2023/02/27 00:25:33;;;;;;;4.53;2.15;;;3.20;99.90;;;;;;4183387;28;20489;-67
2023/02/27 00:27:35;;;;;;;4.07;1.93;;;3.20;99.90;;;;;;4182904;28;20072;-65
2023/02/27 00:29:36;;;;;;;4.65;2.17;;;3.20;99.90;;;;;;4181007;28;20037;-66
2023/02/27 00:31:37;;;;;;;6.95;2.00;;;3.20;99.90;;;;;;4185131;28;20456;-66
2023/02/27 00:33:37;;;;;;;2.63;1.48;;;3.10;99.90;;;;;;4181446;28;20040;-67
2023/02/27 00:35:38;;;;;;;4.30;1.52;;;3.10;99.90;;;;;;4181456;28;20029;-66
2023/02/27 00:37:39;;;;;;;2.88;1.42;;;3.10;99.90;;;;;;4190354;28;20040;-66
2023/02/27 00:39:40;;;;;;;4.00;1.45;;;3.10;99.90;;;;;;4175468;28;20033;-66
2023/02/27 00:41:40;;;;;;;4.43;1.60;;;3.00;99.90;;;;;;4184121;28;20041;-66
2023/02/27 00:43:41;;;;;;;5.03;1.70;;;3.00;99.90;;;;;;4181110;28;20033;-66
2023/02/27 00:45:41;;;;;;;4.22;1.80;;;3.00;99.90;;;;;;4184446;28;20399;-66
2023/02/27 00:47:42;;;;;;;2.53;1.40;;;3.00;99.90;;;;;;4182775;28;20094;-66
2023/02/27 00:49:43;;;;;;;3.67;1.83;;;3.00;99.90;;;;;;4186968;28;20033;-67
2023/02/27 00:51:43;;;;;;;5.32;2.13;;;2.90;99.90;;;;;;4185873;28;20483;-66
2023/02/27 00:53:44;;;;;;;3.22;1.45;;;3.00;99.90;;;;;;4183972;28;20118;-66
2023/02/27 00:55:44;;;;;;;6.47;1.73;;;3.00;99.90;;;;;;4180729;28;20029;-66
2023/02/27 00:57:45;;;;;;;4.78;1.85;;;3.00;99.90;;;;;;4186464;28;20138;-66
2023/02/27 00:59:46;;;;;;;2.83;1.30;;;3.00;99.90;;;;;;4182998;28;20048;-66
2023/02/27 01:01:46;;;;;;;2.83;1.50;;;3.00;99.90;;;;;;4182945;28;20039;-66
2023/02/27 01:03:47;;;;;;;3.20;2.00;;;3.00;99.90;;;;;;4180207;28;20061;-66
2023/02/27 01:05:47;;;;;;;4.15;1.63;;;3.00;99.90;;;;;;4186250;28;20040;-66
2023/02/27 01:07:48;;;;;;;4.57;1.63;;;3.00;99.90;;;;;;4182553;28;20090;-66
2023/02/27 01:09:48;;;;;;;2.80;1.77;;;3.00;99.90;;;;;;4185922;28;20028;-66
2023/02/27 01:11:50;;;;;;;6.88;2.03;;;3.00;99.90;;;;;;4187780;28;20122;-66
2023/02/27 01:13:51;;;;;;;3.78;1.67;;;3.00;99.90;;;;;;4184747;28;20053;-66
2023/02/27 01:15:51;;;;;;;2.80;1.35;;;3.00;99.90;;;;;;4179306;28;20510;-66
2023/02/27 01:17:52;;;;;;;5.72;1.92;;;3.00;99.90;;;;;;4186368;28;20064;-66
2023/02/27 01:19:52;;;;;;;2.75;1.83;;;2.80;99.90;;;;;;4177133;28;20059;-66
2023/02/27 01:21:53;;;;;;;3.25;1.52;;;2.80;99.90;;;;;;4186475;28;20514;-66
2023/02/27 01:23:53;;;;;;;5.65;1.92;;;2.70;99.90;;;;;;4177282;28;20055;-66
2023/02/27 01:25:54;;;;;;;3.22;1.60;;;2.70;99.90;;;;;;4179899;28;20037;-66
2023/02/27 01:27:55;;;;;;;3.08;1.60;;;2.70;99.90;;;;;;4182617;28;20091;-66
2023/02/27 01:29:55;;;;;;;3.80;1.50;;;2.60;99.90;;;;;;4182547;28;20040;-66
2023/02/27 01:31:56;;;;;;;3.45;1.63;;;2.50;99.90;;;;;;4175412;28;20044;-67
2023/02/27 01:33:57;;;;;;;4.22;1.88;;;2.30;99.90;;;;;;4179877;28;20037;-67
2023/02/27 01:35:57;;;;;;;3.83;1.45;;;2.10;99.90;;;;;;4176002;28;20036;-67
2023/02/27 01:37:58;;;;;;;4.65;1.70;;;2.10;99.90;;;;;;4184147;28;20559;-66
2023/02/27 01:39:58;;;;;;;2.78;1.30;;;2.10;99.90;;;;;;4184328;28;20033;-66
2023/02/27 01:41:59;;;;;;;4.57;1.67;;;2.10;99.90;;;;;;4173643;28;20037;-66
2023/02/27 01:44:06;;;;;;;2.65;1.35;;;2.10;99.90;;;;;;4183424;28;20037;-67
2023/02/27 01:46:07;;;;;;;3.38;1.52;;;2.10;99.90;;;;;;4178876;28;20086;-66
2023/02/27 01:48:24;;;;;;;3.67;1.67;;;2.20;99.90;;;;;;4180372;28;20060;-65
2023/02/27 01:50:25;;;;;;;3.60;1.67;;;2.10;99.90;;;;;;4175388;28;20036;-66
2023/02/27 01:52:26;;;;;;;3.95;1.55;;;2.10;99.90;;;;;;4175974;28;20037;-66
2023/02/27 01:54:29;;;;;;;4.60;1.40;;;2.10;99.90;;;;;;4173494;28;20459;-66
2023/02/27 01:56:31;;;;;;;4.10;1.80;;;2.00;99.90;;;;;;4175809;28;20090;-66
2023/02/27 01:58:32;;;;;;;3.85;1.70;;;1.90;99.90;;;;;;4179138;28;20041;-66
2023/02/27 02:00:33;;;;;;;3.58;1.60;;;1.90;99.90;;;;;;4175950;28;20044;-66
2023/02/27 02:02:39;;;;;;;3.92;1.60;;;1.80;99.90;;;;;;4175440;28;20387;-66
2023/02/27 02:04:40;;;;;;;4.15;1.42;;;1.80;99.90;;;;;;4177293;28;20479;-66
2023/02/27 02:06:45;;;;;;;4.95;2.30;;;1.90;99.90;;;;;;4174423;28;20096;-66
2023/02/27 02:08:48;;;;;;;2.53;1.33;;;1.90;99.90;;;;;;4176959;28;20045;-66
2023/02/27 02:10:51;;;;;;;7.00;2.10;;;1.90;99.90;;;;;;4179739;28;20037;-67
2023/02/27 02:12:51;;;;;;;;;;;2.00;99.90;;;;;;4170711;28;20029;-69
2023/02/27 02:14:52;;;;;;;5.60;1.95;;;2.00;99.90;;;;;;4179990;28;19917;-67
2023/02/27 02:17:21;;;;;;;2.10;1.27;;;2.00;99.90;;;;;;4172121;28;20025;-66
2023/02/27 02:19:31;;;;;;;3.45;1.50;;;2.10;99.90;;;;;;4179430;28;20091;-67
2023/02/27 02:22:08;;;;;;;2.75;1.42;;;2.10;99.90;;;;;;4169733;28;20498;-67
2023/02/27 02:24:37;;;;;;;2.80;1.40;;;2.10;99.90;;;;;;4171156;28;20120;-66
2023/02/27 02:27:01;;;;;;;3.78;1.92;;;2.10;99.90;;;;;;4127394;28;20090;-66
2023/02/27 02:29:31;;;;;;;3.72;1.92;;;2.20;99.90;;;;;;4177926;28;20553;-67
2023/02/27 02:31:53;;;;;;;3.35;1.70;;;2.20;99.90;;;;;;4174010;28;20044;-67
2023/02/27 02:34:09;;;;;;;4.80;1.48;;;2.20;99.90;;;;;;4173424;28;20059;-67
2023/02/27 02:36:29;;;;;;;5.40;1.98;;;2.20;99.90;;;;;;4173527;28;20475;-67
2023/02/27 02:38:55;;;;;;;3.97;1.80;;;2.20;99.90;;;;;;4174880;28;20050;-67
2023/02/27 02:41:16;;;;;;;2.75;1.42;;;2.30;99.90;;;;;;4168348;28;20377;-66
2023/02/27 02:43:29;;;;;;;2.88;1.48;;;2.30;99.90;;;;;;4176427;28;20041;-66
2023/02/27 02:45:42;;;;;;;3.67;1.73;;;2.30;99.90;;;;;;4170841;28;20491;-65
2023/02/27 02:48:00;;;;;;;5.53;1.92;;;2.30;99.90;;;;;;4177375;28;20476;-66
2023/02/27 02:50:16;;;;;;;5.80;1.88;;;2.30;99.90;;;;;;4178286;28;20478;-66
2023/02/27 02:52:47;;;;;;;4.55;1.75;;;2.30;99.90;;;;;;4174918;28;20041;-66
2023/02/27 02:54:54;;;;;;;4.65;1.75;;;2.30;99.90;;;;;;4175989;28;20045;-66
2023/02/27 02:57:08;;;;;;;4.47;1.60;;;2.30;99.90;;;;;;4176480;28;20097;-67
2023/02/27 02:59:43;;;;;;;2.72;1.85;;;2.30;99.90;;;;;;4173093;28;20033;-65
2023/02/27 03:01:51;;;;;;;6.30;1.90;;;2.30;99.90;;;;;;4171648;28;20033;-66
2023/02/27 03:04:09;;;;;;;7.80;1.77;;;2.20;99.90;;;;;;4176221;28;20028;-66
2023/02/27 03:06:16;;;;;;;2.65;1.40;;;2.10;99.90;;;;;;4175282;28;20075;-66
2023/02/27 03:08:23;;;;;;;5.70;1.83;;;2.10;99.90;;;;;;4174390;28;20033;-66
2023/02/27 03:10:38;;;;;;;3.83;1.92;;;2.10;99.90;;;;;;4176828;28;21864;-66
2023/02/27 03:12:43;;;;;;;5.07;1.92;;;2.10;99.90;;;;;;4171703;28;20044;-66
2023/02/27 03:15:09;;;;;;;3.40;1.48;;;2.10;99.90;;;;;;4176437;28;21271;-65
2023/02/27 03:17:18;;;;;;;4.82;1.83;;;2.10;99.90;;;;;;4173777;28;20037;-66
2023/02/27 03:19:33;;;;;;;3.58;1.60;;;2.10;99.90;;;;;;4172066;28;20474;-66
2023/02/27 03:21:54;;;;;;;3.25;1.50;;;2.10;99.90;;;;;;4174589;28;20496;-66
2023/02/27 03:23:59;;;;;;;4.20;1.75;;;2.10;99.90;;;;;;4176956;28;20369;-66
2023/02/27 03:25:59;;;;;;;3.58;1.63;;;2.10;99.90;;;;;;4173863;28;20033;-66
2023/02/27 03:28:04;;;;;;;4.20;1.90;;;2.10;99.90;;;;;;4176138;28;20045;-66
2023/02/27 03:30:12;;;;;;;3.72;1.50;;;2.10;99.90;;;;;;4171542;28;20048;-66
2023/02/27 03:32:36;;;;;;;5.72;1.77;;;2.10;99.90;;;;;;4179007;28;20038;-66
2023/02/27 03:34:39;;;;;;;3.35;1.55;;;2.10;99.90;;;;;;4176233;28;20083;-65
2023/02/27 03:37:14;;;;;;;5.18;2.10;;;2.10;99.90;;;;;;4176021;28;20548;-66
2023/02/27 03:39:27;;;;;;;3.92;1.88;;;2.10;99.90;;;;;;4173653;28;20044;-66
2023/02/27 03:41:32;;;;;;;3.58;1.58;;;2.10;99.90;;;;;;4174394;28;20041;-66
2023/02/27 03:43:55;;;;;;;3.95;1.67;;;2.10;99.90;;;;;;4173242;28;20072;-66
2023/02/27 03:46:05;;;;;;;2.85;1.60;;;2.10;99.90;;;;;;4171174;28;20033;-66
2023/02/27 03:48:07;;;;;;;3.20;1.75;;;2.20;99.90;;;;;;4171344;28;20040;-66
2023/02/27 03:50:09;;;;;;;3.75;1.80;;;2.10;99.90;;;;;;4171899;28;20499;-67
2023/02/27 03:52:10;;;;;;;3.25;1.40;;;2.20;99.90;;;;;;4180267;28;20088;-66
2023/02/27 03:54:13;;;;;;;4.43;1.92;;;2.20;99.90;;;;;;4181381;28;20049;-66
2023/02/27 03:56:15;;;;;;;;;;;2.20;99.90;;;;;;4179190;28;20037;-66
2023/02/27 03:58:16;;;;;;;6.50;1.73;;;2.20;99.90;;;;;;4177539;28;19964;-65
2023/02/27 04:00:20;;;;;;;5.20;1.75;;;2.20;99.90;;;;;;4177271;28;20757;-66
2023/02/27 04:02:21;;;;;;;3.95;1.42;;;2.20;99.90;;;;;;4180660;28;20033;-66
2023/02/27 04:04:23;;;;;;;3.53;1.52;;;2.20;99.90;;;;;;4178055;28;20037;-66
2023/02/27 04:09:21;;;;;;;4.50;2.10;;;2.20;99.90;;;;;;4177556;28;20045;-65
2023/02/27 04:11:40;;;;;;;4.75;2.05;;;2.20;99.90;;;;;;4176390;28;20121;-66
2023/02/27 04:13:49;;;;;;;4.45;1.83;;;2.20;99.90;;;;;;4180121;28;20392;-66
2023/02/27 04:16:08;;;;;;;3.70;1.40;;;2.20;99.90;;;;;;4176124;28;20158;-66
2023/02/27 04:18:20;;;;;;;2.63;1.70;;;2.20;99.90;;;;;;4180595;28;20044;-66
2023/02/27 04:20:43;;;;;;;2.60;1.40;;;2.20;99.90;;;;;;4171016;28;20100;-66
2023/02/27 04:23:05;;;;;;;;;;;2.20;99.90;;;;;;4180545;28;20072;-66
2023/02/27 04:25:23;;;;;;;3.92;1.60;;;2.20;99.90;;;;;;4172339;28;19924;-66
2023/02/27 04:27:32;;;;;;;3.22;1.60;;;2.20;99.90;;;;;;4177896;28;20399;-65
2023/02/27 04:30:02;;;;;;;5.65;2.15;;;2.20;99.90;;;;;;4171501;28;20380;-66
2023/02/27 04:32:18;;;;;;;2.65;1.45;;;2.20;99.90;;;;;;4175069;28;20053;-66
2023/02/27 04:34:41;;;;;;;1.83;1.48;;;2.20;99.90;;;;;;4174344;28;20107;-66
2023/02/27 04:36:56;;;;;;;5.63;1.83;;;2.10;99.90;;;;;;4172882;28;20057;-66
2023/02/27 04:39:04;;;;;;;4.07;1.85;;;2.10;99.90;;;;;;4177692;28;20036;-66
2023/02/27 04:41:11;;;;;;;2.60;1.80;;;2.10;99.90;;;;;;4175600;28;20150;-66
2023/02/27 04:43:14;;;;;;;3.55;1.60;;;2.10;99.90;;;;;;4178237;28;20071;-66
2023/02/27 04:45:17;;;;;;;;;;;2.10;99.90;;;;;;4177447;28;20052;-66
2023/02/27 04:47:19;;;;;;;3.67;1.67;;;2.10;99.90;;;;;;4177338;28;19916;-66
2023/02/27 04:49:55;;;;;;;;;;;2.10;99.90;;;;;;4177573;28;20029;-66
2023/02/27 04:52:01;;;;;;;4.22;1.42;;;2.10;99.90;;;;;;4113803;28;19941;-66
2023/02/27 04:54:13;;;;;;;3.85;1.90;;;2.00;99.90;;;;;;4149572;28;20475;-66
2023/02/27 04:56:21;;;;;;;4.75;1.80;;;2.00;99.90;;;;;;4181067;28;20028;-66
2023/02/27 04:58:36;;;;;;;2.97;1.60;;;2.00;99.90;;;;;;4175002;28;20045;-66
2023/02/27 05:00:40;;;;;;;4.05;1.80;;;2.00;99.90;;;;;;4172318;28;20068;-66
2023/02/27 05:02:52;;;;;;;3.33;1.80;;;2.00;99.90;;;;;;4177113;28;20158;-66
2023/02/27 05:04:57;;;;;;;1.85;1.40;;;2.00;99.90;;;;;;4176984;28;20056;-65
2023/02/27 05:07:01;;;;;;;3.50;1.50;;;2.00;99.90;;;;;;4177753;28;20499;-66
2023/02/27 05:09:08;;;;;;;3.53;2.15;;;2.00;99.90;;;;;;4179502;28;20532;-66
2023/02/27 05:11:17;;;;;;;4.25;1.60;;;2.00;99.90;;;;;;4171961;28;20033;-66
2023/02/27 05:13:24;;;;;;;2.45;1.73;;;2.00;99.90;;;;;;4178570;28;20373;-66
2023/02/27 05:15:37;;;;;;;5.57;2.03;;;2.00;99.90;;;;;;4175108;28;20052;-66
2023/02/27 05:17:58;;;;;;;3.95;1.75;;;2.00;99.90;;;;;;4178364;28;20029;-66
2023/02/27 05:19:59;;;;;;;4.28;2.08;;;2.00;99.90;;;;;;4174951;28;20491;-66
2023/02/27 05:22:18;;;;;;;3.85;1.85;;;2.00;99.90;;;;;;4181294;28;20116;-66
2023/02/27 05:24:29;;;;;;;2.53;1.73;;;2.00;99.90;;;;;;4179002;28;20563;-66
2023/02/27 05:27:03;;;;;;;2.67;1.52;;;2.00;99.90;;;;;;4171365;28;20499;-66
2023/02/27 05:29:19;;;;;;;3.20;1.88;;;2.00;99.90;;;;;;4178560;28;20033;-66
2023/02/27 05:31:46;;;;;;;3.33;1.60;;;2.00;99.90;;;;;;4174373;28;20037;-66
2023/02/27 05:33:54;;;;;;;4.65;2.13;;;2.00;99.90;;;;;;4175165;28;20499;-65
2023/02/27 05:36:13;;;;;;;3.47;1.52;;;2.00;99.90;;;;;;4169638;28;20033;-66
2023/02/27 05:38:35;;;;;;;3.58;2.00;;;1.90;99.90;;;;;;4178023;28;20041;-66
2023/02/27 05:40:42;;;;;;;4.88;1.92;;;1.90;99.90;;;;;;4172818;28;20033;-66
2023/02/27 05:42:48;;;;;;;3.15;1.92;;;1.90;99.90;;;;;;4185006;28;20094;-66
2023/02/27 05:44:54;;;;;;;3.58;1.90;;;1.90;99.90;;;;;;4177214;28;20423;-66
2023/02/27 05:47:09;;;;;;;4.50;2.10;;;1.90;99.90;;;;;;4178135;28;20102;-65
2023/02/27 05:49:22;;;;;;;4.10;2.25;;;1.90;99.90;;;;;;4178415;28;20029;-66
2023/02/27 05:51:26;;;;;;;3.35;2.00;;;1.80;99.90;;;;;;4183220;28;20064;-66
2023/02/27 05:53:30;;;;;;;4.57;1.92;;;1.80;99.90;;;;;;4183648;28;20384;-66
2023/02/27 05:55:52;;;;;;;6.03;2.20;;;1.80;99.90;;;;;;4179783;28;20098;-66
2023/02/27 05:57:58;;;;;;;4.50;1.98;;;1.80;99.90;;;;;;4179735;28;20597;-67
2023/02/27 05:59:58;;;;;;;4.28;2.15;;;1.70;99.90;;;;;;4181942;28;20286;-67
2023/02/27 06:01:59;;;;;;;5.15;2.20;;;1.70;99.90;;;;;;4183775;28;20416;-67
2023/02/27 06:04:00;;;;;;;3.83;2.15;;;1.70;99.90;;;;;;4178306;28;20029;-67
2023/02/27 06:06:04;;;;;;;5.18;1.90;;;1.70;99.90;;;;;;4178310;28;20542;-67
2023/02/27 06:08:05;;;;;;;4.32;2.33;;;1.70;99.90;;;;;;4183364;28;20380;-67
2023/02/27 06:10:06;;;;;;;4.65;1.90;;;1.60;99.90;;;;;;4184004;28;20033;-68
2023/02/27 06:12:07;;;;;;;4.03;1.95;;;1.60;99.90;;;;;;4177852;28;20116;-66
2023/02/27 06:14:07;;;;;;;3.22;1.58;;;1.60;99.90;;;;;;4169976;28;20130;-67
2023/02/27 06:16:11;;;;;;;3.25;1.70;;;1.60;99.90;;;;;;4170072;28;20047;-67
2023/02/27 06:18:12;;;;;;;3.67;1.95;;;1.50;99.90;;;;;;4169667;28;20044;-67
2023/02/27 06:20:13;;;;;;;3.05;1.90;;;1.60;99.90;;;;;;4165394;28;20037;-67
2023/02/27 06:22:13;;;;;;;3.42;1.90;;;1.50;99.90;;;;;;4164574;28;20051;-67
2023/02/27 06:24:14;;;;;;;3.55;2.33;;;1.50;99.90;;;;;;4165297;28;20124;-67
2023/02/27 06:26:15;;;;;;;3.97;1.77;;;1.50;99.90;;;;;;4167497;28;20052;-67
2023/02/27 06:28:15;;;;;;;2.55;1.60;;;1.40;99.90;;;;;;4164868;28;20859;-67
2023/02/27 06:30:16;;;;;;;3.25;2.08;;;1.40;99.90;;;;;;4168277;28;20069;-67
2023/02/27 06:32:17;;;;;;;3.45;2.05;;;1.40;99.90;;;;;;4166532;28;21017;-67
2023/02/27 06:34:17;;;;;;;5.80;2.50;;;1.40;99.90;;;;;;4168442;28;20132;-73
2023/02/27 06:36:18;;;;;;;4.65;2.42;;;1.40;99.90;;;;;;4166543;28;20551;-67
2023/02/27 06:38:19;;;;;;;5.20;3.05;;;1.40;99.90;;;;;;4165231;28;20399;-67
2023/02/27 06:40:19;;;;;;;6.03;2.45;;;1.40;99.90;;;;;;4167029;28;20111;-67
2023/02/27 06:42:20;;;;;;;3.67;2.20;;;1.40;99.90;;;;;;4164164;28;20034;-67
2023/02/27 06:44:21;;;;;;;4.50;2.25;;;1.40;99.90;;;;;;4167890;28;20041;-67
2023/02/27 06:46:21;;;;;;;4.00;1.98;;;1.40;99.90;;;;;;4167550;28;20068;-67
2023/02/27 06:48:22;;;;;;;7.90;3.17;;;1.40;99.90;;;;;;4165896;28;20112;-67
2023/02/27 06:50:22;;;;;;;7.65;2.22;;;1.50;99.90;;;;;;4166321;28;20030;-68
2023/02/27 06:52:23;;;;;;;4.47;2.20;;;1.40;99.90;;;;;;4166051;28;20043;-67
2023/02/27 06:54:23;;;;;;;5.57;2.70;;;1.50;99.90;;;;;;4168743;28;20052;-67
2023/02/27 06:56:24;;;;;;;6.10;2.40;;;1.40;99.90;;;;;;4168364;28;20079;-68
2023/02/27 06:58:25;;;;;;;5.22;2.47;;;1.50;99.90;;;;;;4166684;28;20046;-67
2023/02/27 07:00:25;;;;;;;4.72;2.45;;;1.50;99.90;;;;;;4167121;28;20114;-68
2023/02/27 07:02:26;;;;;;;6.00;2.45;;;1.50;99.90;;;;;;4166093;28;20037;-67
2023/02/27 07:04:26;;;;;;;7.88;2.47;;;1.60;99.90;;;;;;4166518;28;20071;-67
2023/02/27 07:06:27;;;;;;;4.13;2.60;;;1.70;99.90;;;;;;4163315;28;20037;-67
2023/02/27 07:08:28;;;;;;;5.35;2.60;;;1.70;99.90;;;;;;4168093;28;20159;-67
2023/02/27 07:10:29;;;;;;;4.88;2.20;;;1.90;99.90;;;;;;4165824;28;20041;-67
2023/02/27 07:12:30;;;;;;;6.22;2.50;;;2.00;99.90;;;;;;4166033;28;20033;-68
2023/02/27 07:14:31;;;;;;;4.63;2.15;;;2.00;99.90;;;;;;4166027;28;20816;-67
2023/02/27 07:16:32;;;;;;;5.25;2.60;;;2.10;99.90;;;;;;4161934;28;20550;-67
2023/02/27 07:18:32;;;;;;;7.63;2.78;;;2.10;99.90;;;;;;4166081;28;20040;-68
2023/02/27 07:20:33;;;;;;;4.30;2.40;;;2.20;99.90;;;;;;4168051;28;20477;-68
2023/02/27 07:22:33;;;;;;;8.10;2.72;;;2.20;99.90;;;;;;4165119;28;20192;-67
2023/02/27 07:24:35;;;;;;;3.97;2.53;;;2.30;99.90;;;;;;4167368;28;20453;-68
2023/02/27 07:26:36;;;;;;;4.82;2.47;;;2.30;99.90;;;;;;4165501;28;20427;-68
2023/02/27 07:28:36;;;;;;;5.43;2.38;;;2.30;99.90;;;;;;4166550;28;20051;-67
2023/02/27 07:30:37;;;;;;;6.93;2.50;;;2.40;99.90;;;;;;4166459;28;20132;-67
2023/02/27 07:32:38;;;;;;;4.25;2.50;;;2.50;99.90;;;;;;4166117;28;20047;-68
2023/02/27 07:34:39;;;;;;;5.35;2.83;;;2.80;99.90;;;;;;4165826;28;20049;-69
2023/02/27 07:36:39;;;;;;;3.30;2.10;;;3.00;99.90;;;;;;4165359;28;20121;-69
2023/02/27 07:38:40;;;;;;;5.43;2.78;;;3.30;99.90;;;;;;4166980;28;20064;-68
2023/02/27 07:40:41;;;;;;;5.25;2.95;;;3.50;99.90;;;;;;4164859;28;20028;-68
2023/02/27 07:42:41;;;;;;;5.00;2.50;;;3.80;99.90;;;;;;4164429;28;20034;-68
2023/02/27 07:44:42;;;;;;;4.13;2.33;;;4.10;99.90;;;;;;4166432;28;20516;-69
2023/02/27 07:46:43;;;;;;;3.47;2.30;;;4.40;99.90;;;;;;4166679;28;20106;-68
2023/02/27 07:48:44;;;;;;;4.25;2.17;;;4.60;99.90;;;;;;4168358;28;20056;-68
2023/02/27 07:50:44;;;;;;;5.13;2.50;;;4.90;99.90;;;;;;4166437;28;20029;-69
2023/02/27 07:52:45;;;;;;;6.03;2.70;;;5.20;99.90;;;;;;4164237;28;20029;-69
2023/02/27 07:54:45;;;;;;;5.63;2.33;;;5.50;99.90;;;;;;4167360;28;20121;-69
2023/02/27 07:56:46;;;;;;;5.25;2.65;;;5.80;99.90;;;;;;4168363;28;20036;-69
2023/02/27 07:58:47;;;;;;;4.22;2.50;;;6.00;99.90;;;;;;4164289;28;20033;-68
2023/02/27 08:00:47;;;;;;;7.50;2.83;;;6.30;99.90;;;;;;4163925;28;20034;-69
2023/02/27 08:02:48;;;;;;;6.50;2.17;;;6.60;99.90;;;;;;4167363;28;20045;-69
2023/02/27 08:04:50;;;;;;;3.80;2.33;;;6.80;99.90;;;;;;4163815;28;20064;-69
2023/02/27 08:06:51;;;;;;;4.25;1.92;;;7.10;99.90;;;;;;4167327;28;20094;-69
2023/02/27 08:08:52;;;;;;;5.40;2.30;;;7.30;99.90;;;;;;4163753;28;20495;-69
2023/02/27 08:10:54;;;;;;;3.50;2.05;;;7.60;99.90;;;;;;4165276;28;20491;-69
2023/02/27 08:12:55;;;;;;;4.40;1.95;;;7.80;99.90;;;;;;4165186;28;20052;-69
2023/02/27 08:14:55;;;;;;;4.38;2.15;;;8.20;99.90;;;;;;4167247;28;20808;-70
2023/02/27 08:16:56;;;;;;;2.47;1.60;;;8.40;99.90;;;;;;4167793;28;20032;-70
2023/02/27 08:18:56;;;;;;;4.47;1.98;;;8.70;99.90;;;;;;4166050;28;20068;-70
2023/02/27 08:20:57;;;;;;;5.82;2.03;;;9.00;99.90;;;;;;4169176;28;20459;-70
2023/02/27 08:22:58;;;;;;;3.33;2.00;;;9.30;99.90;;;;;;4165318;28;20488;-70
2023/02/27 08:24:59;;;;;;;3.30;1.90;;;9.60;99.90;;;;;;4166136;28;20488;-70
2023/02/27 08:27:00;;;;;;;8.80;2.00;;;9.70;99.90;;;;;;4162581;28;20134;-70
2023/02/27 08:29:01;;;;;;;4.45;2.15;;;10.10;99.90;;;;;;4163979;28;20273;-70
2023/02/27 08:31:01;;;;;;;5.50;2.00;;;10.40;99.90;;;;;;4165373;28;20160;-70
2023/02/27 08:33:02;;;;;;;3.50;1.95;;;10.60;98.60;;;;;;4164175;28;20037;-71
2023/02/27 08:35:03;;;;;;;2.88;1.60;;;10.70;98.40;;;;;;4164192;28;20037;-73
2023/02/27 08:37:04;;;;;;;3.67;1.90;;;10.90;99.90;;;;;;4165640;28;20496;-71
2023/02/27 08:39:06;;;;;;;2.45;1.55;;;11.00;99.80;;;;;;4166784;28;20037;-71
2023/02/27 08:41:06;;;;;;;3.28;1.63;;;10.90;95.90;;;;;;4167840;28;20661;-71
2023/02/27 08:43:07;;;;;;;4.75;1.80;;;11.10;93.40;;;;;;4168122;28;20046;-71
2023/02/27 08:45:09;;;;;;;4.78;2.22;;;11.00;93.00;;;;;;4170035;28;20068;-72
2023/02/27 08:47:10;;;;;;;5.82;2.20;;;10.70;94.30;;;;;;4168842;28;20060;-71
2023/02/27 08:49:11;;;;;;;3.55;1.70;;;10.90;95.30;;;;;;4169774;28;20489;-71
2023/02/27 08:51:11;;;;;;;5.25;1.98;;;11.10;93.40;;;;;;4165379;28;20492;-71
2023/02/27 08:53:12;;;;;;;5.00;2.33;;;10.80;91.90;;;;;;4167487;28;20030;-70
2023/02/27 08:55:13;;;;;;;3.00;1.60;;;10.20;91.70;;;;;;4168876;28;20045;-71
2023/02/27 08:57:14;;;;;;;3.90;1.83;;;10.10;94.20;;;;;;4168624;28;20055;-71
2023/02/27 08:59:15;;;;;;;5.00;1.60;;;10.20;99.40;;;;;;4170211;28;20068;-71
2023/02/27 09:01:15;;;;;;;3.08;1.77;;;10.20;95.30;;;;;;4164404;28;20124;-71
2023/02/27 09:03:16;;;;;;;4.43;2.10;;;10.00;95.60;;;;;;4167156;28;20063;-71
2023/02/27 09:05:16;;;;;;;2.13;1.23;;;10.30;98.90;;;;;;4165114;28;20112;-71
2023/02/27 09:07:17;;;;;;;3.38;1.67;;;10.40;98.50;;;;;;4170719;28;20065;-71
2023/02/27 09:09:18;;;;;;;4.75;1.35;;;10.40;99.90;;;;;;4168025;28;20764;-71
2023/02/27 09:11:19;;;;;;;4.22;1.83;;;10.50;96.00;;;;;;4166820;28;20037;-71
2023/02/27 09:13:21;;;;;;;7.45;1.20;;;10.30;95.70;;;;;;4169534;28;20025;-70
2023/02/27 09:15:21;;;;;;;5.55;1.90;;;10.20;95.10;;;;;;4167486;28;20072;-71
2023/02/27 09:17:22;;;;;;;3.53;1.55;;;10.10;94.60;;;;;;4169537;28;20070;-71
2023/02/27 09:19:22;;;;;;;2.15;1.60;;;10.20;98.40;;;;;;4167135;28;20381;-72
2023/02/27 09:21:23;;;;;;;3.67;1.83;;;10.00;94.70;;;;;;4169924;28;20100;-71
2023/02/27 09:23:24;;;;;;;3.65;1.80;;;9.80;98.30;;;;;;4172423;28;21064;-72
2023/02/27 09:25:25;;;;;;;3.35;1.88;;;9.40;95.30;;;;;;4167777;28;20048;-71
2023/02/27 09:27:26;;;;;;;4.22;1.70;;;9.10;95.40;;;;;;4168356;28;20410;-71
2023/02/27 09:29:27;;;;;;;4.10;1.65;;;9.20;99.90;;;;;;4168176;28;20041;-71
2023/02/27 09:31:28;;;;;;;3.40;1.80;;;9.30;99.90;;;;;;4169190;28;20504;-72
2023/02/27 09:33:30;;;;;;;6.57;2.10;;;9.40;99.90;;;;;;4165266;28;20029;-70
2023/02/27 09:35:30;;;;;;;7.63;2.42;;;9.50;99.90;;;;;;4167135;28;20055;-71
2023/02/27 09:37:31;;;;;;;6.63;2.20;;;8.30;96.10;;;;;;4168409;28;20061;-71
2023/02/27 09:39:31;;;;;;;6.63;2.10;;;7.80;98.50;;;;;;4167214;28;20045;-71
2023/02/27 09:41:57;;;;;;;5.32;2.05;;;7.40;98.80;;;;;;4169358;28;20071;-71
2023/02/27 09:44:00;;;;;;;3.45;1.33;;;7.00;99.30;;;;;;4165763;28;20153;-72
2023/02/27 09:46:01;;;;;;;5.70;1.88;;;6.90;99.90;;;;;;4168283;28;20083;-71
2023/02/27 09:48:11;;;;;;;5.05;2.10;;;6.60;99.90;;;;;;4167577;28;20034;-71
2023/02/27 09:50:38;;;;;;;5.20;1.75;;;6.40;99.90;;;;;;4165851;28;20040;-71
2023/02/27 09:52:39;;;;;;;3.97;1.55;;;6.20;99.90;;;;;;4169365;28;20442;-70
2023/02/27 09:54:39;;;;;;;5.20;1.45;;;6.10;99.90;;;;;;4170298;28;20073;-71
2023/02/27 09:56:51;;;;;;;3.95;1.38;;;5.80;99.90;;;;;;4165720;28;21214;-70
2023/02/27 09:59:12;;;;;;;6.38;1.48;;;5.90;99.90;;;;;;4168503;28;20472;-70
2023/02/27 10:01:21;;;;;;;7.05;1.88;;;5.90;99.90;;;;;;4169140;28;20040;-69
2023/02/27 10:03:42;;;;;;;4.60;1.30;;;5.60;99.90;;;;;;4169168;28;20116;-70
2023/02/27 10:06:06;;;;;;;3.42;1.45;;;5.70;99.90;;;;;;4167382;28;20044;-71
2023/02/27 10:08:37;;;;;;;3.70;1.63;;;5.60;99.90;;;;;;4167647;28;20037;-68
2023/02/27 10:10:59;;;;;;;3.05;1.33;;;5.60;99.90;;;;;;4165031;28;20037;-69
2023/02/27 10:13:10;;;;;;;3.42;1.10;;;5.50;99.90;;;;;;4165064;28;20033;-70
2023/02/27 10:15:15;;;;;;;5.47;1.27;;;5.60;99.90;;;;;;4165039;28;20049;-69
2023/02/27 10:17:27;;;;;;;3.80;1.30;;;5.50;99.90;;;;;;4168286;28;20467;-68
2023/02/27 10:19:32;;;;;;;3.20;1.73;;;5.50;99.90;;;;;;4168769;28;20041;-68
2023/02/27 10:21:39;;;;;;;2.08;1.00;;;5.80;99.90;;;;;;4168404;28;20259;-68
2023/02/27 10:24:05;;;;;;;5.60;1.60;;;6.00;99.90;;;;;;4167637;28;20052;-69
2023/02/27 10:26:12;;;;;;;4.68;1.40;;;6.10;99.90;;;;;;4166627;28;20052;-70
2023/02/27 10:28:20;;;;;;;5.03;1.63;;;6.10;99.90;;;;;;4169580;28;20496;-69
2023/02/27 10:30:26;;;;;;;4.05;1.30;;;6.00;99.90;;;;;;4164227;28;20164;-70
2023/02/27 10:32:33;;;;;;;6.15;1.60;;;5.90;99.90;;;;;;4169330;28;20215;-69
2023/02/27 10:34:36;;;;;;;4.78;1.60;;;6.00;99.90;;;;;;4167926;28;20072;-69
2023/02/27 10:36:38;;;;;;;2.53;1.30;;;6.30;99.90;;;;;;4169004;28;20091;-69
2023/02/27 10:38:48;;;;;;;6.60;1.77;;;6.20;99.90;;;;;;4163979;28;20037;-69
2023/02/27 10:40:49;;;;;;;5.25;1.63;;;6.10;99.90;;;;;;4163731;28;20033;-69
2023/02/27 10:42:52;;;;;;;6.22;1.90;;;6.20;99.90;;;;;;4167521;28;20396;-68
2023/02/27 10:44:53;;;;;;;6.05;1.95;;;6.10;99.90;;;;;;4168603;28;20033;-68
2023/02/27 10:46:54;;;;;;;5.93;1.90;;;5.90;99.90;;;;;;4168104;28;20107;-70
2023/02/27 10:48:56;;;;;;;5.43;1.98;;;5.90;99.90;;;;;;4170176;28;20043;-68
2023/02/27 10:51:24;;;;;;;3.83;1.42;;;5.90;99.90;;;;;;4166335;28;20037;-69
2023/02/27 10:53:26;;;;;;;3.88;1.65;;;6.10;99.90;;;;;;4163434;28;20496;-69
2023/02/27 10:55:37;;;;;;;9.10;2.00;;;6.20;99.90;;;;;;4163077;28;20576;-68
2023/02/27 10:57:42;;;;;;;3.67;1.30;;;6.30;99.90;;;;;;4163442;28;20099;-68
2023/02/27 10:59:56;;;;;;;4.25;1.25;;;6.30;99.90;;;;;;4164694;28;20033;-69
2023/02/27 11:02:22;;;;;;;5.07;1.58;;;6.20;99.90;;;;;;4166526;28;20257;-69
2023/02/27 11:04:48;;;;;;;10.75;1.15;;;5.90;99.90;;;;;;4165543;28;20033;-69
2023/02/27 11:06:52;;;;;;;5.15;1.50;;;5.80;99.90;;;;;;4154611;28;20044;-68
2023/02/27 11:09:24;;;;;;;4.18;1.33;;;5.50;99.90;;;;;;4162038;28;20451;-69